SDM6574 UNKL-ULLI
Flight info
| Callsign | SDM6574 |
|---|---|
| Flight time | N/A |
| Altitude | 26000 |
| Route | BASEL2F BASEL B938 SURIP R496 NOVRA/K0863F320 T631 SOREB/K0859F340 T631 NWK M59 SORLI P989 NETLU T756 ODNUS L870 ROMUM T816 AMDEN P979 BEPOL BEPOL1B |
| Aircraft | B738/M-SDE2E3FGHIRWXY/LB1 |
Departure
| Time | 2026-04-29 14:08 |
|---|---|
| Airport | Krasnoyarsk International Airport (UNKL) |
Arrival
| Time | N/A |
|---|---|
| Airport | Pulkovo Airport (ULLI) |
| Time | Latitude | Longitude | Altitude | Speed | Heading |
|---|---|---|---|---|---|
| 2026-04-29 13:38 | 56.17943 | 92.48540 | 956 ft | 0 kts | 23° |
| 2026-04-29 13:57 | 56.17941 | 92.48539 | 956 ft | 2 kts | 23° |
| 2026-04-29 13:58 | 56.17918 | 92.48521 | 953 ft | 3 kts | 24° |
| 2026-04-29 13:58 | 56.17894 | 92.48506 | 956 ft | 4 kts | 6° |
| 2026-04-29 13:58 | 56.17868 | 92.48509 | 952 ft | 4 kts | 340° |
| 2026-04-29 13:58 | 56.17856 | 92.48518 | 956 ft | 1 kts | 332° |
| 2026-04-29 14:01 | 56.17857 | 92.48516 | 956 ft | 1 kts | 325° |
| 2026-04-29 14:01 | 56.17853 | 92.48482 | 956 ft | 5 kts | 235° |
| 2026-04-29 14:01 | 56.17796 | 92.48429 | 953 ft | 15 kts | 201° |
| 2026-04-29 14:02 | 56.17715 | 92.48510 | 954 ft | 20 kts | 112° |
| 2026-04-29 14:02 | 56.17649 | 92.48776 | 955 ft | 24 kts | 114° |
| 2026-04-29 14:02 | 56.17593 | 92.49021 | 955 ft | 20 kts | 108° |
| 2026-04-29 14:02 | 56.17543 | 92.49244 | 954 ft | 19 kts | 117° |
| 2026-04-29 14:03 | 56.17492 | 92.49457 | 956 ft | 18 kts | 113° |
| 2026-04-29 14:03 | 56.17443 | 92.49662 | 952 ft | 18 kts | 112° |
| 2026-04-29 14:03 | 56.17393 | 92.49866 | 954 ft | 19 kts | 112° |
| 2026-04-29 14:03 | 56.17339 | 92.50093 | 953 ft | 21 kts | 112° |
| 2026-04-29 14:04 | 56.17284 | 92.50328 | 953 ft | 20 kts | 113° |
| 2026-04-29 14:04 | 56.17230 | 92.50551 | 955 ft | 19 kts | 112° |
| 2026-04-29 14:04 | 56.17177 | 92.50773 | 954 ft | 19 kts | 111° |
| 2026-04-29 14:04 | 56.17127 | 92.50983 | 952 ft | 18 kts | 114° |
| 2026-04-29 14:05 | 56.17078 | 92.51189 | 956 ft | 18 kts | 113° |
| 2026-04-29 14:05 | 56.17027 | 92.51405 | 956 ft | 19 kts | 113° |
| 2026-04-29 14:05 | 56.16973 | 92.51632 | 956 ft | 21 kts | 113° |
| 2026-04-29 14:05 | 56.16915 | 92.51871 | 956 ft | 21 kts | 113° |
| 2026-04-29 14:06 | 56.16816 | 92.52018 | 954 ft | 20 kts | 172° |
| 2026-04-29 14:06 | 56.16696 | 92.52043 | 954 ft | 13 kts | 184° |
| 2026-04-29 14:06 | 56.16676 | 92.51934 | 954 ft | 9 kts | 287° |
| 2026-04-29 14:06 | 56.16680 | 92.51917 | 954 ft | 7 kts | 290° |
| 2026-04-29 14:07 | 56.16790 | 92.51450 | 954 ft | 74 kts | 292° |
| 2026-04-29 14:07 | 56.17079 | 92.50233 | 951 ft | 133 kts | 293° |
| 2026-04-29 14:07 | 56.17507 | 92.48459 | 975 ft | 178 kts | 294° |
| 2026-04-29 14:07 | 56.18079 | 92.46265 | 1315 ft | 200 kts | 296° |
| 2026-04-29 14:08 | 56.18718 | 92.43960 | 1771 ft | 210 kts | 296° |
| 2026-04-29 14:08 | 56.19392 | 92.41578 | 2246 ft | 218 kts | 297° |
| 2026-04-29 14:08 | 56.19851 | 92.39944 | 2554 ft | 223 kts | 292° |
| 2026-04-29 14:08 | 56.20393 | 92.37324 | 3107 ft | 225 kts | 289° |
| 2026-04-29 14:09 | 56.20994 | 92.34656 | 3473 ft | 240 kts | 303° |
| 2026-04-29 14:09 | 56.22279 | 92.32650 | 3972 ft | 252 kts | 326° |
| 2026-04-29 14:09 | 56.23773 | 92.30992 | 4760 ft | 252 kts | 326° |
| 2026-04-29 14:09 | 56.25272 | 92.29335 | 5511 ft | 253 kts | 326° |
| 2026-04-29 14:10 | 56.26781 | 92.27659 | 6246 ft | 256 kts | 326° |
| 2026-04-29 14:10 | 56.28299 | 92.25961 | 6976 ft | 258 kts | 326° |
| 2026-04-29 14:10 | 56.29827 | 92.24233 | 7665 ft | 262 kts | 326° |
| 2026-04-29 14:10 | 56.31376 | 92.22472 | 8375 ft | 264 kts | 325° |
| 2026-04-29 14:11 | 56.32934 | 92.20690 | 9074 ft | 267 kts | 325° |
| 2026-04-29 14:11 | 56.34509 | 92.18886 | 9746 ft | 269 kts | 325° |
| 2026-04-29 14:11 | 56.36089 | 92.17073 | 10475 ft | 270 kts | 326° |
| 2026-04-29 14:11 | 56.37707 | 92.15218 | 10860 ft | 285 kts | 326° |
| 2026-04-29 14:12 | 56.39435 | 92.13225 | 11026 ft | 305 kts | 326° |
| 2026-04-29 14:12 | 56.41278 | 92.11094 | 11191 ft | 324 kts | 326° |
| 2026-04-29 14:12 | 56.43227 | 92.08840 | 11414 ft | 340 kts | 326° |
| 2026-04-29 14:12 | 56.45246 | 92.06501 | 11981 ft | 345 kts | 326° |
| 2026-04-29 14:13 | 56.47270 | 92.04160 | 12670 ft | 345 kts | 327° |
| 2026-04-29 14:13 | 56.49301 | 92.01810 | 13294 ft | 348 kts | 327° |
| 2026-04-29 14:13 | 56.51352 | 91.99425 | 13870 ft | 351 kts | 327° |
| 2026-04-29 14:13 | 56.53414 | 91.97024 | 14449 ft | 354 kts | 327° |
| 2026-04-29 14:14 | 56.55496 | 91.94596 | 14994 ft | 357 kts | 327° |
| 2026-04-29 14:14 | 56.57595 | 91.92146 | 15552 ft | 360 kts | 327° |
| 2026-04-29 14:14 | 56.59711 | 91.89673 | 16099 ft | 363 kts | 328° |
| 2026-04-29 14:14 | 56.61840 | 91.87182 | 16669 ft | 365 kts | 328° |
| 2026-04-29 14:15 | 56.63989 | 91.84665 | 17150 ft | 369 kts | 328° |
| 2026-04-29 14:15 | 56.66157 | 91.82122 | 17649 ft | 372 kts | 328° |
| 2026-04-29 14:15 | 56.68332 | 91.79564 | 18209 ft | 373 kts | 328° |
| 2026-04-29 14:15 | 56.70547 | 91.76960 | 18685 ft | 375 kts | 328° |
| 2026-04-29 14:16 | 56.72720 | 91.74400 | 19216 ft | 376 kts | 328° |
| 2026-04-29 14:16 | 56.74918 | 91.71800 | 19718 ft | 378 kts | 327° |
| 2026-04-29 14:16 | 56.77075 | 91.69016 | 20218 ft | 380 kts | 325° |
| 2026-04-29 14:16 | 56.79186 | 91.66104 | 20662 ft | 382 kts | 324° |
| 2026-04-29 14:17 | 56.81298 | 91.63137 | 21082 ft | 385 kts | 324° |
| 2026-04-29 14:17 | 56.83424 | 91.60151 | 21534 ft | 386 kts | 324° |
| 2026-04-29 14:17 | 56.85558 | 91.57170 | 22016 ft | 386 kts | 324° |
| 2026-04-29 14:17 | 56.87694 | 91.54199 | 22446 ft | 387 kts | 324° |
| 2026-04-29 14:18 | 56.89841 | 91.51217 | 22849 ft | 389 kts | 324° |
| 2026-04-29 14:18 | 56.92004 | 91.48213 | 23243 ft | 391 kts | 324° |
| 2026-04-29 14:18 | 56.94175 | 91.45194 | 23607 ft | 393 kts | 324° |
| 2026-04-29 14:18 | 56.96277 | 91.41974 | 23972 ft | 396 kts | 318° |
| 2026-04-29 14:19 | 56.98130 | 91.38225 | 24349 ft | 400 kts | 310° |
| 2026-04-29 14:19 | 56.99763 | 91.34060 | 24676 ft | 403 kts | 309° |
| 2026-04-29 14:19 | 57.01376 | 91.29851 | 24982 ft | 405 kts | 309° |
| 2026-04-29 14:19 | 57.03003 | 91.25590 | 25301 ft | 407 kts | 309° |
| 2026-04-29 14:20 | 57.04635 | 91.21320 | 25567 ft | 410 kts | 309° |
| 2026-04-29 14:20 | 57.06280 | 91.17028 | 25871 ft | 411 kts | 309° |
| 2026-04-29 14:20 | 57.07931 | 91.12724 | 26202 ft | 412 kts | 309° |
| 2026-04-29 14:20 | 57.09581 | 91.08421 | 26486 ft | 414 kts | 309° |
| 2026-04-29 14:21 | 57.11265 | 91.04032 | 26747 ft | 416 kts | 309° |
| 2026-04-29 14:21 | 57.12916 | 90.99724 | 27004 ft | 418 kts | 309° |
| 2026-04-29 14:21 | 57.14618 | 90.95277 | 27252 ft | 420 kts | 309° |
| 2026-04-29 14:21 | 57.16297 | 90.90884 | 27520 ft | 421 kts | 309° |
| 2026-04-29 14:22 | 57.18004 | 90.86409 | 27833 ft | 420 kts | 308° |
| 2026-04-29 14:22 | 57.19685 | 90.81992 | 28200 ft | 419 kts | 308° |
| 2026-04-29 14:22 | 57.21356 | 90.77590 | 28600 ft | 417 kts | 308° |
| 2026-04-29 14:22 | 57.23010 | 90.73226 | 28993 ft | 415 kts | 308° |
| 2026-04-29 14:23 | 57.24660 | 90.68865 | 29289 ft | 414 kts | 308° |
| 2026-04-29 14:23 | 57.26310 | 90.64499 | 29563 ft | 415 kts | 308° |
| 2026-04-29 14:23 | 57.27938 | 90.60183 | 29908 ft | 413 kts | 308° |
| 2026-04-29 14:23 | 57.29593 | 90.55788 | 30270 ft | 410 kts | 308° |
| 2026-04-29 14:24 | 57.31219 | 90.51460 | 30564 ft | 410 kts | 308° |
| 2026-04-29 14:24 | 57.32824 | 90.47181 | 30821 ft | 410 kts | 308° |
| 2026-04-29 14:24 | 57.34447 | 90.42848 | 31135 ft | 408 kts | 308° |
| 2026-04-29 14:24 | 57.36057 | 90.38539 | 31469 ft | 406 kts | 308° |
| 2026-04-29 14:25 | 57.37662 | 90.34238 | 31782 ft | 404 kts | 308° |
| 2026-04-29 14:25 | 57.39257 | 90.29955 | 32033 ft | 404 kts | 308° |
| 2026-04-29 14:25 | 57.40875 | 90.25601 | 32255 ft | 404 kts | 308° |
| 2026-04-29 14:25 | 57.42468 | 90.21305 | 32543 ft | 403 kts | 308° |
| 2026-04-29 14:26 | 57.44048 | 90.17040 | 32848 ft | 401 kts | 308° |
| 2026-04-29 14:26 | 57.45648 | 90.12715 | 33090 ft | 400 kts | 307° |
| 2026-04-29 14:26 | 57.47218 | 90.08464 | 33302 ft | 400 kts | 307° |
| 2026-04-29 14:26 | 57.48789 | 90.04200 | 33517 ft | 399 kts | 307° |
| 2026-04-29 14:27 | 57.50354 | 89.99943 | 33726 ft | 399 kts | 307° |
| 2026-04-29 14:27 | 57.51912 | 89.95702 | 33930 ft | 398 kts | 307° |
| 2026-04-29 14:27 | 57.53476 | 89.91436 | 34122 ft | 398 kts | 307° |
| 2026-04-29 14:28 | 57.56599 | 89.82892 | 34328 ft | 401 kts | 307° |
| 2026-04-29 14:28 | 57.59738 | 89.74273 | 34340 ft | 401 kts | 307° |
| 2026-04-29 14:29 | 57.62858 | 89.65675 | 34339 ft | 398 kts | 307° |
| 2026-04-29 14:29 | 57.65947 | 89.57131 | 34338 ft | 396 kts | 307° |
| 2026-04-29 14:30 | 57.69017 | 89.48616 | 34341 ft | 394 kts | 307° |
| 2026-04-29 14:30 | 57.72076 | 89.40099 | 34339 ft | 394 kts | 307° |
| 2026-04-29 14:31 | 57.75150 | 89.31603 | 34348 ft | 395 kts | 307° |
| 2026-04-29 14:31 | 57.78245 | 89.23068 | 34344 ft | 397 kts | 307° |
| 2026-04-29 14:32 | 57.81363 | 89.14432 | 34341 ft | 399 kts | 306° |
| 2026-04-29 14:32 | 57.84473 | 89.05778 | 34345 ft | 401 kts | 306° |
| 2026-04-29 14:33 | 57.87593 | 88.97060 | 34341 ft | 403 kts | 306° |
| 2026-04-29 14:33 | 57.90719 | 88.88291 | 34341 ft | 404 kts | 306° |
| 2026-04-29 14:34 | 57.93853 | 88.79470 | 34340 ft | 406 kts | 306° |
| 2026-04-29 14:34 | 57.96987 | 88.70616 | 34342 ft | 406 kts | 305° |
| 2026-04-29 14:35 | 58.00120 | 88.61732 | 34335 ft | 406 kts | 305° |
| 2026-04-29 14:35 | 58.03234 | 88.52867 | 34339 ft | 405 kts | 305° |
| 2026-04-29 14:36 | 58.06327 | 88.44031 | 34334 ft | 402 kts | 304° |
| 2026-04-29 14:36 | 58.08900 | 88.36651 | 34332 ft | 400 kts | 304° |
| 2026-04-29 14:37 | 58.11954 | 88.27866 | 34331 ft | 399 kts | 304° |
| 2026-04-29 14:37 | 58.14985 | 88.19113 | 34319 ft | 397 kts | 304° |
| 2026-04-29 14:38 | 58.18011 | 88.10351 | 34310 ft | 396 kts | 304° |
| 2026-04-29 14:38 | 58.21040 | 88.01542 | 34313 ft | 397 kts | 304° |
| 2026-04-29 14:39 | 58.24052 | 87.92755 | 34319 ft | 397 kts | 304° |
| 2026-04-29 14:39 | 58.27066 | 87.83937 | 34313 ft | 399 kts | 304° |
| 2026-04-29 14:40 | 58.30087 | 87.75065 | 34314 ft | 401 kts | 304° |
| 2026-04-29 14:40 | 58.33137 | 87.66072 | 34316 ft | 402 kts | 304° |
| 2026-04-29 14:41 | 58.36189 | 87.57038 | 34313 ft | 404 kts | 303° |
| 2026-04-29 14:41 | 58.39199 | 87.48085 | 34319 ft | 404 kts | 303° |
| 2026-04-29 14:42 | 58.42243 | 87.39029 | 34321 ft | 403 kts | 303° |
| 2026-04-29 14:42 | 58.45253 | 87.30014 | 34313 ft | 402 kts | 303° |
| 2026-04-29 14:43 | 58.48254 | 87.20986 | 34300 ft | 402 kts | 303° |
| 2026-04-29 14:43 | 58.51243 | 87.11964 | 34300 ft | 401 kts | 303° |
| 2026-04-29 14:44 | 58.54216 | 87.02958 | 34306 ft | 399 kts | 303° |
| 2026-04-29 14:44 | 58.57194 | 86.93909 | 34292 ft | 398 kts | 302° |
| 2026-04-29 14:45 | 58.60138 | 86.84925 | 34309 ft | 397 kts | 302° |
| 2026-04-29 14:45 | 58.63067 | 86.75959 | 34320 ft | 396 kts | 302° |
| 2026-04-29 14:46 | 58.65844 | 86.66825 | 34327 ft | 397 kts | 299° |
| 2026-04-29 14:46 | 58.68424 | 86.57431 | 34322 ft | 397 kts | 298° |
| 2026-04-29 14:47 | 58.70987 | 86.47999 | 34325 ft | 398 kts | 298° |
| 2026-04-29 14:47 | 58.73567 | 86.38550 | 34322 ft | 399 kts | 298° |
| 2026-04-29 14:48 | 58.76159 | 86.29071 | 34321 ft | 400 kts | 298° |
| 2026-04-29 14:48 | 58.78753 | 86.19561 | 34326 ft | 401 kts | 298° |
| 2026-04-29 14:49 | 58.81347 | 86.10020 | 34316 ft | 402 kts | 298° |
| 2026-04-29 14:49 | 58.83933 | 86.00464 | 34315 ft | 402 kts | 298° |
| 2026-04-29 14:50 | 58.86514 | 85.90892 | 34318 ft | 401 kts | 297° |
| 2026-04-29 14:50 | 58.89080 | 85.81325 | 34320 ft | 401 kts | 297° |
| 2026-04-29 14:51 | 58.91636 | 85.71760 | 34321 ft | 400 kts | 297° |
| 2026-04-29 14:51 | 58.94182 | 85.62192 | 34313 ft | 399 kts | 297° |
| 2026-04-29 14:52 | 58.96715 | 85.52630 | 34320 ft | 399 kts | 297° |
| 2026-04-29 14:52 | 58.99245 | 85.43073 | 34314 ft | 396 kts | 298° |
| 2026-04-29 14:53 | 59.01762 | 85.33602 | 34303 ft | 395 kts | 296° |
| 2026-04-29 14:53 | 59.04233 | 85.24069 | 34311 ft | 395 kts | 296° |
| 2026-04-29 14:54 | 59.06709 | 85.14517 | 34311 ft | 396 kts | 296° |
| 2026-04-29 14:54 | 59.09187 | 85.04944 | 34298 ft | 397 kts | 296° |
| 2026-04-29 14:55 | 59.11685 | 84.95264 | 34291 ft | 398 kts | 296° |
| 2026-04-29 14:55 | 59.14172 | 84.85598 | 34295 ft | 399 kts | 296° |
| 2026-04-29 14:56 | 59.16653 | 84.75909 | 34296 ft | 400 kts | 296° |
| 2026-04-29 14:56 | 59.19129 | 84.66195 | 34298 ft | 400 kts | 295° |
| 2026-04-29 14:57 | 59.21596 | 84.56474 | 34291 ft | 400 kts | 295° |
| 2026-04-29 14:57 | 59.24058 | 84.46729 | 34294 ft | 399 kts | 295° |
| 2026-04-29 14:58 | 59.26505 | 84.36999 | 34282 ft | 399 kts | 295° |
| 2026-04-29 14:58 | 59.28942 | 84.27265 | 34290 ft | 398 kts | 295° |
| 2026-04-29 14:59 | 59.31367 | 84.17541 | 34286 ft | 397 kts | 295° |
| 2026-04-29 14:59 | 59.33781 | 84.07819 | 34288 ft | 396 kts | 295° |
| 2026-04-29 15:00 | 59.36167 | 83.98173 | 34282 ft | 395 kts | 294° |
| 2026-04-29 15:00 | 59.38556 | 83.88459 | 34274 ft | 395 kts | 294° |
| 2026-04-29 15:01 | 59.40949 | 83.78690 | 34277 ft | 395 kts | 294° |
| 2026-04-29 15:01 | 59.43323 | 83.68955 | 34279 ft | 395 kts | 294° |
| 2026-04-29 15:02 | 59.45690 | 83.59209 | 34279 ft | 395 kts | 294° |
| 2026-04-29 15:02 | 59.46465 | 83.56005 | 34277 ft | 395 kts | 294° |
| 2026-04-29 15:03 | 59.47351 | 83.52339 | 34274 ft | 395 kts | 294° |
| 2026-04-29 15:03 | 59.49708 | 83.42558 | 34268 ft | 396 kts | 294° |
| 2026-04-29 15:04 | 59.52059 | 83.32757 | 34269 ft | 396 kts | 294° |
| 2026-04-29 15:04 | 59.54408 | 83.22913 | 34262 ft | 397 kts | 293° |
| 2026-04-29 15:05 | 59.56769 | 83.12982 | 34269 ft | 397 kts | 293° |
| 2026-04-29 15:05 | 59.59109 | 83.03095 | 34261 ft | 398 kts | 293° |